createdAt,value
2019-01-21T00:02:05.608Z,98980.02
2019-01-21T00:07:12.738Z,98980.37
2019-01-21T00:12:19.455Z,98977.61
2019-01-21T00:17:24.938Z,98973.10
2019-01-21T00:22:31.470Z,98979.64
2019-01-21T00:27:36.830Z,98968.56
2019-01-21T00:32:42.326Z,98972.63
2019-01-21T00:37:48.027Z,98972.69
2019-01-21T00:42:53.428Z,98971.40
2019-01-21T00:47:58.804Z,98980.34
2019-01-21T00:53:04.417Z,98980.31
2019-01-21T00:58:10.039Z,98982.69
2019-01-21T01:03:15.265Z,98984.17
2019-01-21T01:08:21.138Z,98981.55
2019-01-21T01:13:27.208Z,98987.44
2019-01-21T01:18:32.920Z,98989.33
2019-01-21T01:23:38.226Z,98992.74
2019-01-21T01:28:43.815Z,99001.59
2019-01-21T01:33:49.006Z,98994.23
2019-01-21T01:38:54.713Z,99001.50
2019-01-21T01:44:00.176Z,98993.38
2019-01-21T01:49:06.382Z,98994.83
2019-01-21T01:54:11.690Z,98994.63
2019-01-21T01:59:16.875Z,98995.80
2019-01-21T02:04:22.591Z,98996.73
2019-01-21T02:09:27.780Z,99000.41
2019-01-21T02:14:33.285Z,98996.69
2019-01-21T02:19:39.809Z,98993.55
2019-01-21T02:24:44.959Z,98986.98
2019-01-21T02:30:15.943Z,98988.59
2019-01-21T02:35:30.615Z,98990.61
2019-01-21T02:41:35.003Z,98982.59
2019-01-21T02:46:58.329Z,98982.48
2019-01-21T02:52:38.582Z,98982.36
2019-01-21T02:58:42.948Z,98987.66
2019-01-21T03:04:35.211Z,98982.16
2019-01-21T03:10:05.300Z,98981.55
2019-01-21T03:15:57.961Z,98976.86
2019-01-21T03:21:23.233Z,98978.23
2019-01-21T03:27:05.774Z,98981.20
2019-01-21T03:33:07.160Z,98974.29
2019-01-21T03:38:52.179Z,98974.34
2019-01-21T03:44:41.414Z,98974.91
2019-01-21T03:50:23.647Z,98976.41
2019-01-21T03:55:30.247Z,98975.06
2019-01-21T04:00:54.544Z,98972.48
2019-01-21T04:06:43.640Z,98971.69
2019-01-21T04:12:05.139Z,98971.59
2019-01-21T04:18:06.031Z,98973.16
2019-01-21T04:23:49.054Z,98974.25
2019-01-21T04:29:07.721Z,98976.11
2019-01-21T04:34:53.325Z,98980.56
2019-01-21T04:40:21.724Z,98978.32
2019-01-21T04:46:00.047Z,98979.70
2019-01-21T04:51:49.077Z,98968.39
2019-01-21T04:57:17.830Z,98970.76
2019-01-21T05:03:04.188Z,98966.29
2019-01-21T05:09:02.106Z,98966.11
2019-01-21T05:14:48.482Z,98981.65
2019-01-21T05:20:24.556Z,98977.63
2019-01-21T05:25:50.085Z,98983.48
2019-01-21T05:31:36.326Z,98971.78
2019-01-21T05:37:25.776Z,98977.28
2019-01-21T05:43:16.685Z,98975.73
2019-01-21T05:49:09.499Z,98972.98
2019-01-21T05:54:51.897Z,98981.67
2019-01-21T06:00:44.646Z,98980.38
2019-01-21T06:06:09.403Z,98987.86
2019-01-21T06:12:05.885Z,98991.89
2019-01-21T06:17:23.232Z,98997.91
2019-01-21T06:23:15.792Z,98992.95
2019-01-21T06:28:55.217Z,98987.28
2019-01-21T06:34:48.476Z,98990.91
2019-01-21T06:40:37.780Z,98998.30
2019-01-21T06:46:23.223Z,98996.80
2019-01-21T06:51:42.940Z,99001.48
2019-01-21T06:57:12.432Z,98996.70
2019-01-21T07:02:32.010Z,98997.63
2019-01-21T07:08:24.364Z,99001.17
2019-01-21T07:14:10.460Z,99004.35
2019-01-21T07:20:12.022Z,99008.42
2019-01-21T07:25:57.827Z,99019.13
2019-01-21T07:31:46.965Z,99013.02
2019-01-21T07:37:36.198Z,99012.80
2019-01-21T07:43:24.695Z,99018.23
2019-01-21T07:49:06.499Z,99022.84
2019-01-21T07:54:27.614Z,99025.73
2019-01-21T08:00:12.303Z,99030.25
2019-01-21T08:05:55.181Z,99026.45
2019-01-21T08:11:26.286Z,99033.72
2019-01-21T08:17:12.642Z,99029.56
2019-01-21T08:22:59.791Z,99042.63
2019-01-21T08:28:38.283Z,99040.52
2019-01-21T08:34:00.357Z,99047.74
2019-01-21T08:39:37.350Z,99048.23
2019-01-21T08:45:19.610Z,99047.93
2019-01-21T08:51:12.103Z,99038.75
2019-01-21T08:57:28.706Z,99042.95
2019-01-21T09:02:50.415Z,99044.34
2019-01-21T09:08:37.577Z,99038.77
2019-01-21T09:14:23.143Z,99037.69
2019-01-21T09:20:11.290Z,99048.89
2019-01-21T09:25:43.072Z,99042.83
2019-01-21T09:31:20.492Z,99051.27
2019-01-21T09:37:09.775Z,99044.89
2019-01-21T09:42:46.178Z,99049.34
2019-01-21T09:47:49.808Z,99047.04
2019-01-21T09:52:56.080Z,99047.72
2019-01-21T09:58:07.835Z,99043.01
2019-01-21T10:03:13.886Z,99043.93
2019-01-21T10:08:31.263Z,99038.86
2019-01-21T10:14:03.445Z,99032.27
2019-01-21T10:19:41.037Z,99034.28
2019-01-21T10:25:23.414Z,99025.05
2019-01-21T10:30:53.158Z,99029.73
2019-01-21T10:36:40.801Z,99018.55
2019-01-21T10:41:52.092Z,99010.28
2019-01-21T10:47:08.425Z,99003.39
2019-01-21T10:53:00.594Z,99004.79
2019-01-21T10:58:30.527Z,98992.08
2019-01-21T11:04:01.690Z,98988.84
2019-01-21T11:09:43.744Z,98978.11
2019-01-21T11:15:32.808Z,98980.58
2019-01-21T11:21:02.471Z,98970.75
2019-01-21T11:27:03.524Z,98959.97
2019-01-21T11:32:42.182Z,98957.67
2019-01-21T11:38:17.322Z,98950.71
2019-01-21T11:43:37.886Z,98936.33
2019-01-21T11:48:59.496Z,98929.69
2019-01-21T11:54:19.707Z,98916.93
2019-01-21T12:00:07.302Z,98921.09
2019-01-21T12:05:31.210Z,98922.18
2019-01-21T12:11:17.353Z,98909.94
2019-01-21T12:17:17.943Z,98903.11
2019-01-21T12:22:50.613Z,98896.04
2019-01-21T12:28:15.706Z,98883.33
2019-01-21T12:34:01.128Z,98874.95
2019-01-21T12:39:55.648Z,98868.34
2019-01-21T12:45:28.851Z,98852.74
2019-01-21T12:51:21.073Z,98837.03
2019-01-21T12:56:46.851Z,98832.27
2019-01-21T13:02:30.744Z,98822.22
2019-01-21T13:08:06.576Z,98813.97
2019-01-21T13:13:48.392Z,98801.47
2019-01-21T13:19:23.781Z,98798.31
2019-01-21T13:24:56.240Z,98797.02
2019-01-21T13:30:31.646Z,98789.46
2019-01-21T13:36:35.534Z,98785.91
2019-01-21T13:41:58.918Z,98781.70
2019-01-21T13:47:50.007Z,98784.58
2019-01-21T13:53:39.639Z,98783.84
2019-01-21T13:59:22.795Z,98774.34
2019-01-21T14:05:11.034Z,98766.23
2019-01-21T14:10:53.357Z,98758.53
2019-01-21T14:16:23.819Z,98760.52
2019-01-21T14:21:57.622Z,98742.33
2019-01-21T14:27:41.178Z,98738.40
2019-01-21T14:33:12.388Z,98741.53
2019-01-21T14:38:42.099Z,98739.15
2019-01-21T14:44:15.414Z,98734.31
2019-01-21T14:49:41.146Z,98735.83
2019-01-21T14:55:11.400Z,98735.14
2019-01-21T15:00:48.992Z,98729.39
2019-01-21T15:06:32.365Z,98727.67
2019-01-21T15:12:14.571Z,98741.23
2019-01-21T15:17:47.753Z,98738.03
2019-01-21T15:23:49.055Z,98739.41
2019-01-21T15:29:16.123Z,98746.50
2019-01-21T15:35:07.261Z,98747.84
2019-01-21T15:40:42.339Z,98746.72
2019-01-21T15:46:11.297Z,98746.52
2019-01-21T15:52:02.562Z,98749.27
2019-01-21T15:57:30.432Z,98736.20
2019-01-21T16:03:19.521Z,98746.92
2019-01-21T16:08:39.524Z,98734.56
2019-01-21T16:14:01.512Z,98728.08
2019-01-21T16:19:10.836Z,98719.03
2019-01-21T16:24:48.718Z,98724.77
2019-01-21T16:30:01.413Z,98731.37
2019-01-21T16:35:45.105Z,98740.52
2019-01-21T16:41:22.314Z,98741.31
2019-01-21T16:46:27.881Z,98729.64
2019-01-21T16:51:33.065Z,98731.15
2019-01-21T16:56:38.282Z,98724.20
2019-01-21T17:01:44.212Z,98724.60
2019-01-21T17:06:51.299Z,98727.73
2019-01-21T17:11:56.581Z,98726.63
2019-01-21T17:17:01.783Z,98715.81
2019-01-21T17:22:07.394Z,98725.05
2019-01-21T17:27:12.892Z,98724.45
2019-01-21T17:32:18.094Z,98719.72
2019-01-21T17:37:23.941Z,98704.06
2019-01-21T17:42:29.178Z,98706.73
2019-01-21T17:47:34.365Z,98711.16
2019-01-21T17:52:39.586Z,98704.94
2019-01-21T17:57:46.188Z,98706.86
2019-01-21T18:02:51.395Z,98702.64
2019-01-21T18:07:56.802Z,98697.53
2019-01-21T18:13:02.128Z,98693.39
2019-01-21T18:18:07.712Z,98688.43
2019-01-21T18:23:13.463Z,98685.21
2019-01-21T18:28:18.688Z,98682.59
2019-01-21T18:33:23.853Z,98677.74
2019-01-21T18:38:30.339Z,98667.27
2019-01-21T18:43:38.835Z,98661.88
2019-01-21T18:48:44.358Z,98657.42
2019-01-21T18:53:51.112Z,98646.95
2019-01-21T18:58:57.297Z,98651.48
2019-01-21T19:04:02.623Z,98651.48
2019-01-21T19:09:09.388Z,98652.83
2019-01-21T19:14:15.063Z,98662.48
2019-01-21T19:19:20.636Z,98668.48
2019-01-21T19:24:25.903Z,98662.22
2019-01-21T19:29:32.163Z,98666.09
2019-01-21T19:34:37.746Z,98677.22
2019-01-21T19:39:43.054Z,98682.86
2019-01-21T19:44:48.322Z,98689.30
2019-01-21T19:49:53.936Z,98695.08
2019-01-21T19:54:59.252Z,98698.48
2019-01-21T20:00:05.537Z,98705.33
2019-01-21T20:05:11.302Z,98691.50
2019-01-21T20:10:19.082Z,98694.41
2019-01-21T20:15:25.841Z,98691.39
2019-01-21T20:20:33.531Z,98681.93
2019-01-21T20:25:38.746Z,98678.11
2019-01-21T20:30:43.944Z,98671.39
2019-01-21T20:35:49.173Z,98660.18
2019-01-21T20:40:55.131Z,98657.33
2019-01-21T20:46:00.323Z,98659.45
2019-01-21T20:51:05.543Z,98661.86
2019-01-21T20:56:11.458Z,98662.59
2019-01-21T21:01:19.272Z,98666.00
2019-01-21T21:06:24.486Z,98653.14
2019-01-21T21:11:30.210Z,98654.77
2019-01-21T21:16:35.742Z,98641.27
2019-01-21T21:21:41.815Z,98640.98
2019-01-21T21:26:47.505Z,98642.70
2019-01-21T21:31:52.756Z,98631.74
2019-01-21T21:36:58.295Z,98631.95
2019-01-21T21:42:03.514Z,98629.94
2019-01-21T21:47:08.791Z,98622.39
2019-01-21T21:52:14.780Z,98625.91
2019-01-21T21:57:20.160Z,98614.04
2019-01-21T22:02:25.466Z,98614.42
2019-01-21T22:07:31.037Z,98610.39
2019-01-21T22:12:36.669Z,98598.98
2019-01-21T22:17:42.144Z,98589.69
2019-01-21T22:22:47.336Z,98590.81
2019-01-21T22:27:52.928Z,98596.06
2019-01-21T22:32:58.632Z,98588.34
2019-01-21T22:38:04.135Z,98592.98
2019-01-21T22:43:09.348Z,98578.82
2019-01-21T22:48:15.768Z,98576.08
2019-01-21T22:53:21.296Z,98565.05
2019-01-21T22:58:26.588Z,98561.19
2019-01-21T23:03:32.353Z,98553.64
2019-01-21T23:08:37.547Z,98553.80
2019-01-21T23:13:42.825Z,98552.24
2019-01-21T23:18:48.017Z,98551.10
2019-01-21T23:23:53.580Z,98544.22
2019-01-21T23:28:58.820Z,98547.29
2019-01-21T23:34:04.624Z,98551.88
2019-01-21T23:39:09.827Z,98550.59
2019-01-21T23:44:15.349Z,98540.48
2019-01-21T23:49:20.535Z,98538.19
2019-01-21T23:54:26.042Z,98531.23
2019-01-21T23:59:31.636Z,98529.22
